createdAt,value
2022-08-16T00:00:04.417Z,21.90
2022-08-16T00:02:33.468Z,21.90
2022-08-16T00:05:01.224Z,21.80
2022-08-16T00:07:29.792Z,21.80
2022-08-16T00:09:58.744Z,21.80
2022-08-16T00:12:28.047Z,21.80
2022-08-16T00:14:57.137Z,21.80
2022-08-16T00:17:25.920Z,21.70
2022-08-16T00:19:54.975Z,21.70
2022-08-16T00:22:27.949Z,21.70
2022-08-16T00:24:55.432Z,21.70
2022-08-16T00:27:23.442Z,21.70
2022-08-16T00:30:08.256Z,21.70
2022-08-16T00:32:38.618Z,21.70
2022-08-16T00:35:15.674Z,21.70
2022-08-16T00:37:57.924Z,21.70
2022-08-16T00:40:53.791Z,21.70
2022-08-16T00:43:26.358Z,21.60
2022-08-16T00:46:33.611Z,21.60
2022-08-16T00:49:01.059Z,21.60
2022-08-16T00:51:29.821Z,21.60
2022-08-16T00:53:58.841Z,21.60
2022-08-16T00:56:58.647Z,21.70
2022-08-16T00:59:23.757Z,21.70
2022-08-16T01:01:52.366Z,21.70
2022-08-16T01:04:29.444Z,21.70
2022-08-16T01:07:05.175Z,21.70
2022-08-16T01:09:37.157Z,21.60
2022-08-16T01:12:08.755Z,21.70
2022-08-16T01:14:45.193Z,21.60
2022-08-16T01:17:17.088Z,21.60
2022-08-16T01:19:48.409Z,21.70
2022-08-16T01:22:49.641Z,21.70
2022-08-16T01:25:38.759Z,21.60
2022-08-16T01:28:11.191Z,21.60
2022-08-16T01:30:52.297Z,21.60
2022-08-16T01:33:22.464Z,21.60
2022-08-16T01:35:54.315Z,21.60
2022-08-16T01:38:31.758Z,21.60
2022-08-16T01:41:06.590Z,21.60
2022-08-16T01:43:36.227Z,21.60
2022-08-16T01:46:30.175Z,21.50
2022-08-16T01:49:01.366Z,21.50
2022-08-16T01:51:29.071Z,21.60
2022-08-16T01:53:58.354Z,21.50
2022-08-16T01:56:30.260Z,21.50
2022-08-16T01:59:00.352Z,21.50
2022-08-16T02:01:28.960Z,21.50
2022-08-16T02:03:58.414Z,21.40
2022-08-16T02:06:34.220Z,21.40
2022-08-16T02:09:05.268Z,21.40
2022-08-16T02:11:42.962Z,21.40
2022-08-16T02:14:18.466Z,21.40
2022-08-16T02:16:49.806Z,21.40
2022-08-16T02:19:18.656Z,21.40
2022-08-16T02:22:08.862Z,21.40
2022-08-16T02:24:46.011Z,21.40
2022-08-16T02:27:14.125Z,21.30
2022-08-16T02:29:43.060Z,21.30
2022-08-16T02:32:50.940Z,21.30
2022-08-16T02:35:04.577Z,21.30
2022-08-16T02:37:51.590Z,21.30
2022-08-16T02:40:23.661Z,21.30
2022-08-16T02:42:54.028Z,21.30
2022-08-16T02:45:27.659Z,21.20
2022-08-16T02:48:00.518Z,21.20
2022-08-16T02:50:55.186Z,21.20
2022-08-16T02:53:15.264Z,21.20
2022-08-16T02:55:46.173Z,21.20
2022-08-16T02:58:18.997Z,21.10
2022-08-16T03:00:50.294Z,21.10
2022-08-16T03:03:18.578Z,21.10
2022-08-16T03:05:50.035Z,21.00
2022-08-16T03:08:50.487Z,21.00
2022-08-16T03:11:16.715Z,20.90
2022-08-16T03:13:51.397Z,20.90
2022-08-16T03:16:37.763Z,20.90
2022-08-16T03:19:10.695Z,20.90
2022-08-16T03:21:38.870Z,20.90
2022-08-16T03:24:28.994Z,20.80
2022-08-16T03:26:59.213Z,20.80
2022-08-16T03:29:32.034Z,20.80
2022-08-16T03:32:01.785Z,20.80
2022-08-16T03:34:30.742Z,20.80
2022-08-16T03:36:58.324Z,20.70
2022-08-16T03:39:25.683Z,20.70
2022-08-16T03:41:59.652Z,20.70
2022-08-16T03:44:40.743Z,20.70
2022-08-16T03:47:12.775Z,20.60
2022-08-16T03:49:51.887Z,20.60
2022-08-16T03:52:23.611Z,20.60
2022-08-16T03:54:58.130Z,20.50
2022-08-16T03:57:32.070Z,20.50
2022-08-16T04:00:20.776Z,20.50
2022-08-16T04:03:08.539Z,20.40
2022-08-16T04:05:46.757Z,20.40
2022-08-16T04:08:22.717Z,20.30
2022-08-16T04:10:58.281Z,20.30
2022-08-16T04:14:01.799Z,20.30
2022-08-16T04:16:27.636Z,20.30
2022-08-16T04:19:07.602Z,20.30
2022-08-16T04:21:46.011Z,20.20
2022-08-16T04:24:18.477Z,20.20
2022-08-16T04:26:46.898Z,20.20
2022-08-16T04:29:23.943Z,20.20
2022-08-16T04:31:56.201Z,20.20
2022-08-16T04:34:30.719Z,20.20
2022-08-16T04:37:01.572Z,20.10
2022-08-16T04:39:37.156Z,20.10
2022-08-16T04:42:17.305Z,20.10
2022-08-16T04:44:54.042Z,20.00
2022-08-16T04:47:31.740Z,20.10
2022-08-16T04:50:14.540Z,20.00
2022-08-16T04:52:58.104Z,20.00
2022-08-16T04:55:31.786Z,20.00
2022-08-16T04:58:44.198Z,20.00
2022-08-16T05:00:57.872Z,20.00
2022-08-16T05:03:26.210Z,20.00
2022-08-16T05:05:55.908Z,19.90
2022-08-16T05:08:30.978Z,20.00
2022-08-16T05:11:08.994Z,19.90
2022-08-16T05:13:40.334Z,19.90
2022-08-16T05:16:21.840Z,19.90
2022-08-16T05:18:57.028Z,19.90
2022-08-16T05:21:38.016Z,19.90
2022-08-16T05:24:09.072Z,19.90
2022-08-16T05:26:43.283Z,19.90
2022-08-16T05:29:17.335Z,19.90
2022-08-16T05:32:01.406Z,20.00
2022-08-16T05:34:29.732Z,20.00
2022-08-16T05:36:57.487Z,20.00
2022-08-16T05:39:33.651Z,20.10
2022-08-16T05:42:08.085Z,20.10
2022-08-16T05:44:37.567Z,20.10
2022-08-16T05:47:05.943Z,20.10
2022-08-16T05:49:38.433Z,20.10
2022-08-16T05:52:13.411Z,20.10
2022-08-16T05:54:47.327Z,20.10
2022-08-16T05:57:19.251Z,20.10
2022-08-16T05:59:50.693Z,20.20
2022-08-16T06:02:33.457Z,20.20
2022-08-16T06:05:03.159Z,20.20
2022-08-16T06:07:32.108Z,20.20
2022-08-16T06:10:08.109Z,20.30
2022-08-16T06:12:37.693Z,20.30
2022-08-16T06:15:16.694Z,20.30
2022-08-16T06:17:45.175Z,20.30
2022-08-16T06:20:23.378Z,20.40
2022-08-16T06:22:57.585Z,20.40
2022-08-16T06:25:36.258Z,20.40
2022-08-16T06:28:09.419Z,20.40
2022-08-16T06:30:43.736Z,20.40
2022-08-16T06:33:19.699Z,20.40
2022-08-16T06:35:55.334Z,20.50
2022-08-16T06:38:33.711Z,20.60
2022-08-16T06:41:13.828Z,20.60
2022-08-16T06:43:43.105Z,20.60
2022-08-16T06:46:34.324Z,20.60
2022-08-16T06:49:11.293Z,20.70
2022-08-16T06:51:46.705Z,20.80
2022-08-16T06:54:20.888Z,20.80
2022-08-16T06:56:48.066Z,20.80
2022-08-16T06:59:25.546Z,20.90
2022-08-16T07:01:58.521Z,20.90
2022-08-16T07:04:33.123Z,20.90
2022-08-16T07:07:11.461Z,20.90
2022-08-16T07:09:42.120Z,21.00
2022-08-16T07:12:09.827Z,21.10
2022-08-16T07:14:41.451Z,21.10
2022-08-16T07:17:12.943Z,21.10
2022-08-16T07:20:02.989Z,21.20
2022-08-16T07:22:52.510Z,21.20
2022-08-16T07:25:31.614Z,21.30
2022-08-16T07:28:00.817Z,21.30
2022-08-16T07:30:46.003Z,21.30
2022-08-16T07:33:51.802Z,21.40
2022-08-16T07:36:25.061Z,21.40
2022-08-16T07:38:52.917Z,21.40
2022-08-16T07:41:21.243Z,21.40
2022-08-16T07:43:55.322Z,21.40
2022-08-16T07:46:37.937Z,21.50
2022-08-16T07:49:16.188Z,21.50
2022-08-16T07:51:45.807Z,21.60
2022-08-16T07:54:20.675Z,21.70
2022-08-16T07:56:53.825Z,21.70
2022-08-16T07:59:21.645Z,21.70
2022-08-16T08:01:49.266Z,21.80
2022-08-16T08:04:20.879Z,21.90
2022-08-16T08:06:50.912Z,21.90
2022-08-16T08:09:19.193Z,21.90
2022-08-16T08:11:59.835Z,22.00
2022-08-16T08:14:34.179Z,22.10
2022-08-16T08:17:01.841Z,22.10
2022-08-16T08:19:31.450Z,22.20
2022-08-16T08:22:02.557Z,22.20
2022-08-16T08:24:46.870Z,22.40
2022-08-16T08:27:22.437Z,22.40
2022-08-16T08:30:48.786Z,22.40
2022-08-16T08:32:59.945Z,22.60
2022-08-16T08:35:27.025Z,22.70
2022-08-16T08:37:56.412Z,22.80
2022-08-16T08:40:29.569Z,22.90
2022-08-16T08:43:12.205Z,23.00
2022-08-16T08:45:48.006Z,23.10
2022-08-16T08:48:33.863Z,23.20
2022-08-16T08:51:13.716Z,23.30
2022-08-16T08:53:57.462Z,23.40
2022-08-16T08:56:30.454Z,23.60
2022-08-16T08:59:13.173Z,23.60
2022-08-16T09:01:56.632Z,23.80
2022-08-16T09:04:26.966Z,23.90
2022-08-16T09:06:55.655Z,23.90
2022-08-16T09:09:33.661Z,24.00
2022-08-16T09:12:06.947Z,24.20
2022-08-16T09:46:45.613Z,24.40
2022-08-16T09:49:20.015Z,25.80
2022-08-16T09:51:50.043Z,25.90
2022-08-16T09:54:17.425Z,25.90
2022-08-16T09:56:52.701Z,26.10
2022-08-16T09:59:20.998Z,26.10
2022-08-16T10:01:51.675Z,26.20
2022-08-16T10:04:33.187Z,26.30
2022-08-16T10:07:11.972Z,26.40
2022-08-16T10:09:55.209Z,26.60
2022-08-16T10:12:55.824Z,26.70
2022-08-16T10:15:24.575Z,26.80
2022-08-16T10:18:01.174Z,26.80
2022-08-16T10:20:33.991Z,27.00
2022-08-16T10:23:06.773Z,27.10
2022-08-16T10:27:19.483Z,27.20
2022-08-16T10:28:40.027Z,27.30
2022-08-16T10:31:12.021Z,27.30
2022-08-16T10:33:44.011Z,27.30
2022-08-16T10:36:12.411Z,27.30
2022-08-16T10:38:59.471Z,27.40
2022-08-16T10:41:26.586Z,27.40
2022-08-16T10:43:54.187Z,27.40
2022-08-16T10:46:40.042Z,27.40
2022-08-16T10:49:10.976Z,27.50
2022-08-16T10:52:01.186Z,27.50
2022-08-16T10:54:29.342Z,27.50
2022-08-16T10:57:04.263Z,27.60
2022-08-16T10:59:46.958Z,27.60
2022-08-16T11:03:37.599Z,27.60
2022-08-16T11:05:12.616Z,27.70
2022-08-16T11:07:51.701Z,27.80
2022-08-16T11:13:57.200Z,27.90
2022-08-16T11:19:05.288Z,27.90
2022-08-16T11:21:35.106Z,28.00
2022-08-16T11:24:02.178Z,28.00
2022-08-16T11:26:29.816Z,28.00
2022-08-16T11:29:13.873Z,28.00
2022-08-16T11:31:45.569Z,28.10
2022-08-16T11:34:14.425Z,28.00
2022-08-16T11:36:59.497Z,28.10
2022-08-16T11:39:32.005Z,28.10
2022-08-16T11:42:02.533Z,28.20
2022-08-16T11:44:52.382Z,28.20
2022-08-16T11:47:21.728Z,28.30
2022-08-16T11:49:48.851Z,28.40
2022-08-16T11:52:17.777Z,28.40
2022-08-16T11:54:56.758Z,28.50
2022-08-16T11:57:24.212Z,28.60
2022-08-16T11:59:51.958Z,28.60
2022-08-16T12:02:31.460Z,28.70
2022-08-16T12:04:59.895Z,28.60
2022-08-16T12:07:28.178Z,28.70
2022-08-16T12:09:55.311Z,28.80
2022-08-16T12:12:23.903Z,28.80
2022-08-16T12:15:00.140Z,28.80
2022-08-16T12:17:32.080Z,28.80
2022-08-16T12:20:00.903Z,28.80
2022-08-16T12:22:29.139Z,28.90
2022-08-16T12:24:56.512Z,29.00
2022-08-16T12:27:25.542Z,29.10
2022-08-16T12:29:53.998Z,29.20
2022-08-16T12:32:35.851Z,29.20
2022-08-16T12:35:11.863Z,29.30
2022-08-16T12:37:39.823Z,29.40
2022-08-16T12:40:24.859Z,29.40
2022-08-16T12:42:54.257Z,29.40
2022-08-16T12:45:22.817Z,29.50
2022-08-16T12:48:32.793Z,29.50
2022-08-16T12:50:57.407Z,29.60
2022-08-16T12:53:24.655Z,29.60
2022-08-16T12:55:52.790Z,29.60
2022-08-16T12:58:49.328Z,29.60
2022-08-16T13:01:09.475Z,29.70
2022-08-16T13:03:40.627Z,29.60
2022-08-16T13:06:08.817Z,29.60
2022-08-16T13:08:36.391Z,29.60
2022-08-16T13:11:07.893Z,29.60
2022-08-16T13:13:35.789Z,29.60
2022-08-16T13:16:15.948Z,29.60
2022-08-16T13:18:52.583Z,29.60
2022-08-16T13:21:23.851Z,29.60
2022-08-16T13:23:55.596Z,29.60
2022-08-16T13:26:24.135Z,29.70
2022-08-16T13:28:53.503Z,29.70
2022-08-16T13:31:20.401Z,29.90
2022-08-16T13:33:47.592Z,29.80
2022-08-16T13:36:38.792Z,29.90
2022-08-16T13:39:03.824Z,29.90
2022-08-16T13:41:31.759Z,29.90
2022-08-16T13:44:00.746Z,29.90
2022-08-16T13:46:29.973Z,29.80
2022-08-16T13:48:57.884Z,29.80
2022-08-16T13:51:25.511Z,29.70
2022-08-16T13:54:02.575Z,29.70
2022-08-16T13:56:37.669Z,29.60
2022-08-16T13:59:19.512Z,29.60
2022-08-16T14:01:55.695Z,29.60
2022-08-16T14:04:26.613Z,29.50
2022-08-16T14:06:55.403Z,29.50
2022-08-16T14:09:24.423Z,29.40
2022-08-16T14:11:54.452Z,29.40
2022-08-16T14:14:29.181Z,29.30
2022-08-16T14:17:02.102Z,29.20
2022-08-16T14:19:30.016Z,29.10
2022-08-16T14:22:15.141Z,29.00
2022-08-16T14:24:50.095Z,29.00
2022-08-16T14:27:19.612Z,28.90
2022-08-16T14:29:49.980Z,28.80
2022-08-16T14:32:27.008Z,28.80
2022-08-16T14:35:04.611Z,28.70
2022-08-16T14:37:34.963Z,28.70
2022-08-16T14:40:03.584Z,28.80
2022-08-16T14:42:30.907Z,28.80
2022-08-16T14:44:57.987Z,28.80
2022-08-16T14:47:34.148Z,28.80
2022-08-16T14:50:02.733Z,28.80
2022-08-16T14:52:54.032Z,28.80
2022-08-16T14:55:17.155Z,28.80
2022-08-16T14:57:44.115Z,28.90
2022-08-16T15:00:13.338Z,28.90
2022-08-16T15:02:42.915Z,28.90
2022-08-16T15:05:11.917Z,28.90
2022-08-16T15:07:40.299Z,28.90
2022-08-16T15:10:12.133Z,29.00
2022-08-16T15:12:56.249Z,29.00
2022-08-16T15:15:27.843Z,29.00
2022-08-16T15:17:56.958Z,29.10
2022-08-16T15:20:30.013Z,29.10
2022-08-16T15:22:59.737Z,29.10
2022-08-16T15:25:31.899Z,29.10
2022-08-16T15:28:02.536Z,29.10
2022-08-16T15:30:58.088Z,29.10
2022-08-16T15:33:25.463Z,29.10
2022-08-16T15:35:55.391Z,29.10
2022-08-16T15:38:57.874Z,29.10
2022-08-16T15:41:29.072Z,29.00
2022-08-16T15:44:04.830Z,29.00
2022-08-16T15:46:54.717Z,29.00
2022-08-16T15:49:20.337Z,29.00
2022-08-16T15:51:48.168Z,28.90
2022-08-16T15:54:30.010Z,29.00
2022-08-16T15:57:09.668Z,28.90
2022-08-16T15:59:48.116Z,28.90
2022-08-16T16:02:27.238Z,28.90
2022-08-16T16:04:54.891Z,28.90
2022-08-16T16:07:22.303Z,28.90
2022-08-16T16:09:49.781Z,28.90
2022-08-16T16:12:50.473Z,28.90
2022-08-16T16:15:07.859Z,28.90
2022-08-16T16:17:35.535Z,29.00
2022-08-16T16:20:05.242Z,29.00
2022-08-16T16:22:40.786Z,29.00
2022-08-16T16:25:07.862Z,29.00
2022-08-16T16:27:36.206Z,29.00
2022-08-16T16:30:11.310Z,29.00
2022-08-16T16:32:51.744Z,29.00
2022-08-16T16:35:19.008Z,29.00
2022-08-16T16:37:56.563Z,29.00
2022-08-16T16:40:32.296Z,29.00
2022-08-16T16:43:00.623Z,29.00
2022-08-16T16:45:33.503Z,29.10
2022-08-16T16:48:12.439Z,29.10
2022-08-16T16:50:44.597Z,29.20
2022-08-16T16:53:16.927Z,29.30
2022-08-16T16:55:52.250Z,29.20
2022-08-16T16:58:43.390Z,29.30
2022-08-16T17:01:20.941Z,29.30
2022-08-16T17:04:13.139Z,29.30
2022-08-16T17:06:53.352Z,29.30
2022-08-16T17:09:20.964Z,29.30
2022-08-16T17:11:55.213Z,29.30
2022-08-16T17:14:32.411Z,29.30
2022-08-16T17:17:05.146Z,29.30
2022-08-16T17:19:32.611Z,29.20
2022-08-16T17:22:02.095Z,29.10
2022-08-16T17:24:39.824Z,29.10
2022-08-16T17:27:11.682Z,29.10
2022-08-16T17:29:46.490Z,29.00
2022-08-16T17:32:34.010Z,28.90
2022-08-16T17:35:18.458Z,28.80
2022-08-16T17:37:51.937Z,28.80
2022-08-16T17:40:25.787Z,28.80
2022-08-16T17:43:10.279Z,28.70
2022-08-16T17:45:39.242Z,28.60
2022-08-16T17:48:06.689Z,28.60
2022-08-16T17:50:33.811Z,28.50
2022-08-16T17:53:04.201Z,28.40
2022-08-16T17:55:34.611Z,28.40
2022-08-16T17:58:01.850Z,28.30
2022-08-16T18:00:47.420Z,28.20
2022-08-16T18:04:09.126Z,28.20
2022-08-16T18:06:16.734Z,28.10
2022-08-16T18:08:48.534Z,28.00
2022-08-16T18:11:18.259Z,27.90
2022-08-16T18:13:46.645Z,27.90
2022-08-16T18:16:16.631Z,27.80
2022-08-16T18:18:46.076Z,27.80
2022-08-16T18:21:33.166Z,27.70
2022-08-16T18:24:00.281Z,27.60
2022-08-16T18:26:27.277Z,27.50
2022-08-16T18:28:54.268Z,27.50
2022-08-16T18:31:21.283Z,27.40
2022-08-16T18:33:49.438Z,27.40
2022-08-16T18:36:21.873Z,27.30
2022-08-16T18:38:50.148Z,27.30
2022-08-16T18:41:18.719Z,27.30
2022-08-16T18:43:54.396Z,27.10
2022-08-16T18:46:32.687Z,27.10
2022-08-16T18:48:59.839Z,27.00
2022-08-16T18:51:26.945Z,26.90
2022-08-16T18:53:54.229Z,26.80
2022-08-16T18:56:21.245Z,26.70
2022-08-16T18:58:49.067Z,26.50
2022-08-16T19:01:16.747Z,26.40
2022-08-16T19:03:43.864Z,26.20
2022-08-16T19:06:15.132Z,26.10
2022-08-16T19:08:44.604Z,25.90
2022-08-16T19:11:23.478Z,25.80
2022-08-16T19:13:50.706Z,25.60
2022-08-16T19:16:18.079Z,25.50
2022-08-16T19:18:49.852Z,25.40
2022-08-16T19:21:16.808Z,25.40
2022-08-16T19:23:44.587Z,25.20
2022-08-16T19:26:24.905Z,25.20
2022-08-16T19:28:58.746Z,25.10
2022-08-16T19:31:32.733Z,25.00
2022-08-16T19:34:00.843Z,24.90
2022-08-16T19:36:35.299Z,24.90
2022-08-16T19:39:05.972Z,24.80
2022-08-16T19:41:38.217Z,24.70
2022-08-16T19:44:06.732Z,24.70
2022-08-16T19:46:34.411Z,24.60
2022-08-16T19:49:01.474Z,24.50
2022-08-16T19:51:29.032Z,24.40
2022-08-16T19:53:56.165Z,24.40
2022-08-16T19:56:25.734Z,24.30
2022-08-16T20:01:42.772Z,24.20
2022-08-16T20:04:12.552Z,24.10
2022-08-16T20:06:40.523Z,24.10
2022-08-16T20:09:07.596Z,24.00
2022-08-16T20:11:35.362Z,24.00
2022-08-16T20:14:02.749Z,24.00
2022-08-16T20:16:29.980Z,23.90
2022-08-16T20:18:56.967Z,23.90
2022-08-16T20:21:24.321Z,23.90
2022-08-16T20:23:51.649Z,23.90
2022-08-16T20:26:19.046Z,23.80
2022-08-16T20:28:54.331Z,23.80
2022-08-16T20:31:23.842Z,23.80
2022-08-16T20:33:51.757Z,23.70
2022-08-16T20:36:18.759Z,23.70
2022-08-16T20:38:47.724Z,23.70
2022-08-16T20:41:16.118Z,23.60
2022-08-16T20:43:43.402Z,23.60
2022-08-16T20:46:10.693Z,23.60
2022-08-16T20:48:37.723Z,23.50
2022-08-16T20:51:06.789Z,23.50
2022-08-16T20:53:34.048Z,23.40
2022-08-16T20:56:01.070Z,23.40
2022-08-16T20:58:28.035Z,23.40
2022-08-16T21:00:55.023Z,23.30
2022-08-16T21:03:21.993Z,23.30
2022-08-16T21:05:48.990Z,23.20
2022-08-16T21:08:27.893Z,23.20
2022-08-16T21:11:06.326Z,23.20
2022-08-16T21:13:33.987Z,23.10
2022-08-16T21:16:02.547Z,23.00
2022-08-16T21:18:29.619Z,22.90
2022-08-16T21:20:56.568Z,22.90
2022-08-16T21:23:23.581Z,22.90
2022-08-16T21:25:59.053Z,22.90
2022-08-16T21:28:41.873Z,22.90
2022-08-16T21:31:15.262Z,22.80
2022-08-16T21:33:44.320Z,22.80
2022-08-16T21:36:14.420Z,22.70
2022-08-16T21:38:41.302Z,22.70
2022-08-16T21:41:10.200Z,22.60
2022-08-16T21:43:37.152Z,22.60
2022-08-16T21:46:05.706Z,22.60
2022-08-16T21:48:34.519Z,22.50
2022-08-16T21:51:08.332Z,22.50
2022-08-16T21:53:37.842Z,22.50
2022-08-16T21:56:05.320Z,22.50
2022-08-16T21:58:33.075Z,22.40
2022-08-16T22:01:01.241Z,22.50
2022-08-16T22:03:32.439Z,22.40
2022-08-16T22:06:13.303Z,22.40
2022-08-16T22:08:48.855Z,22.40
2022-08-16T22:11:22.584Z,22.40
2022-08-16T22:13:57.430Z,22.40
2022-08-16T22:16:33.265Z,22.40
2022-08-16T22:19:01.484Z,22.40
2022-08-16T22:21:28.883Z,22.40
2022-08-16T22:23:58.404Z,22.30
2022-08-16T22:26:39.747Z,22.30
2022-08-16T22:29:13.042Z,22.30
2022-08-16T22:31:41.481Z,22.20
2022-08-16T22:34:09.008Z,22.30
2022-08-16T22:36:36.953Z,22.20
2022-08-16T22:39:06.383Z,22.30
2022-08-16T22:41:34.932Z,22.20
2022-08-16T22:44:03.618Z,22.20
2022-08-16T22:46:30.948Z,22.20
2022-08-16T22:48:57.935Z,22.20
2022-08-16T22:51:26.875Z,22.20
2022-08-16T22:53:55.456Z,22.10
2022-08-16T22:56:23.641Z,22.20
2022-08-16T22:58:50.584Z,22.20
2022-08-16T23:01:19.777Z,22.20
2022-08-16T23:03:46.817Z,22.20
2022-08-16T23:06:14.381Z,22.20
2022-08-16T23:08:43.052Z,22.20
2022-08-16T23:11:19.466Z,22.10
2022-08-16T23:13:53.241Z,22.10
2022-08-16T23:16:33.502Z,22.10
2022-08-16T23:19:10.601Z,22.10
2022-08-16T23:21:40.793Z,22.10
2022-08-16T23:24:08.763Z,22.00
2022-08-16T23:26:46.654Z,22.00
2022-08-16T23:29:24.423Z,22.00
2022-08-16T23:31:59.069Z,21.90
2022-08-16T23:34:28.383Z,21.90
2022-08-16T23:36:55.870Z,21.90
2022-08-16T23:39:23.802Z,21.90
2022-08-16T23:41:50.859Z,21.90
2022-08-16T23:44:56.369Z,21.90
2022-08-16T23:47:06.292Z,21.90
2022-08-16T23:49:58.439Z,21.90
2022-08-16T23:52:45.724Z,21.90
2022-08-16T23:55:08.444Z,21.90
2022-08-16T23:57:35.358Z,21.90
